Airfield :
LOGIN :

Register | Disclaimer

   EN    FR    IT 

 










Legend :    VFR   Marginal VFR   IFR   Intensive IFR   Very Intensive IFR
Visi :
Ceiling :
>= 8 km
>= 3000ft
5 to 8 km
1000 to 3000 ft
1500m to 5 km
500 to 1000 ft
800 to 1500m
200 to 500 ft
< 800m
< 200 ft
Symbols :   Thunderstorms  Fog  Heavy snow  Heavy precipitations  Wind > 20 kt
SIGMETs :     Misc.  Thunderstorms  Icing  Turbulence  Mountain Waves  Volcanic Ashes






- Airport Elevation : 485 ft
- IATA code : QSA


LELL - Sabadell

CURRENT METAR :
  • 232030Z AUTO 22003KT 180V280 CAVOK 21/14 Q1018

EXPIRED METARs :
  • 232000Z AUTO 20003KT 170V230 CAVOK 21/14 Q1018
  • 231930Z 18006KT 150V210 9999 FEW050 22/14 Q1017
  • 231900Z 18005KT 130V200 9999 FEW050 23/14 Q1017
  • 231830Z 26005KT 220V300 9999 FEW050 24/12 Q1017
  • 231800Z 25007KT 210V280 9999 FEW050 24/13 Q1017
  • 231730Z 24005KT 170V310 9999 FEW050 25/12 Q1016

TAF TAF LELL
Valid from the 23 at 15:00 until the 24 at 15:00 UTC


231400Z 2315/2415 28008KT 9999 FEW030 TX27/2413Z TN14/2406Z
BECMG 2408/2410 22010KT



MET'MAP, your aeronautical weather chart ! - Copyright ORBIFLY December 2007 - Disclaimer

ORBIFLY MET'MAP TEAM :

Programming & Development : Alexandra Zaïnal
Concept & original design : Baudouin d'Aumeries
Assistance for programming : Marc-Olivier Méhu
Technical & hardware support : Manuel Goepfert

Contact : metmap@orbifly.com




SOURCES & CREDITS :

   NOAA